sensor_id;sensor_type;location;lat;lon;timestamp;P1;durP1;ratioP1;P2;durP2;ratioP2
18228;SDS011;9239;50.932;3.142;2022-09-03T00:00:40;11.73;;;10.82;;
18228;SDS011;9239;50.932;3.142;2022-09-03T00:03:12;12.27;;;11.18;;
18228;SDS011;9239;50.932;3.142;2022-09-03T00:05:46;12.23;;;11.07;;
18228;SDS011;9239;50.932;3.142;2022-09-03T00:08:18;12.75;;;11.68;;
18228;SDS011;9239;50.932;3.142;2022-09-03T00:10:51;13.40;;;12.27;;
18228;SDS011;9239;50.932;3.142;2022-09-03T00:13:23;13.10;;;12.05;;
18228;SDS011;9239;50.932;3.142;2022-09-03T00:15:54;12.85;;;11.85;;
18228;SDS011;9239;50.932;3.142;2022-09-03T00:18:24;12.90;;;11.80;;
18228;SDS011;9239;50.932;3.142;2022-09-03T00:20:57;13.88;;;12.60;;
18228;SDS011;9239;50.932;3.142;2022-09-03T00:23:32;14.30;;;13.00;;
18228;SDS011;9239;50.932;3.142;2022-09-03T00:26:13;16.55;;;15.05;;
18228;SDS011;9239;50.932;3.142;2022-09-03T00:28:49;16.35;;;14.90;;
18228;SDS011;9239;50.932;3.142;2022-09-03T00:31:20;16.55;;;15.00;;
18228;SDS011;9239;50.932;3.142;2022-09-03T00:33:51;16.90;;;15.40;;
18228;SDS011;9239;50.932;3.142;2022-09-03T00:36:27;15.40;;;14.10;;
18228;SDS011;9239;50.932;3.142;2022-09-03T00:39:01;15.73;;;14.32;;
18228;SDS011;9239;50.932;3.142;2022-09-03T00:41:29;16.20;;;14.90;;
18228;SDS011;9239;50.932;3.142;2022-09-03T00:44:10;15.77;;;14.48;;
18228;SDS011;9239;50.932;3.142;2022-09-03T00:46:48;15.27;;;13.73;;
18228;SDS011;9239;50.932;3.142;2022-09-03T00:49:31;15.85;;;14.45;;
18228;SDS011;9239;50.932;3.142;2022-09-03T00:52:12;15.80;;;14.50;;
18228;SDS011;9239;50.932;3.142;2022-09-03T00:54:49;15.93;;;14.10;;
18228;SDS011;9239;50.932;3.142;2022-09-03T00:57:29;14.57;;;13.27;;
18228;SDS011;9239;50.932;3.142;2022-09-03T01:00:09;14.35;;;13.00;;
18228;SDS011;9239;50.932;3.142;2022-09-03T01:02:49;15.35;;;14.10;;
18228;SDS011;9239;50.932;3.142;2022-09-03T01:08:18;16.63;;;15.02;;
18228;SDS011;9239;50.932;3.142;2022-09-03T01:10:56;14.38;;;13.18;;
18228;SDS011;9239;50.932;3.142;2022-09-03T01:13:31;14.65;;;13.45;;
18228;SDS011;9239;50.932;3.142;2022-09-03T01:16:04;16.58;;;15.13;;
18228;SDS011;9239;50.932;3.142;2022-09-03T01:18:38;15.40;;;14.10;;
18228;SDS011;9239;50.932;3.142;2022-09-03T01:21:25;15.32;;;14.00;;
18228;SDS011;9239;50.932;3.142;2022-09-03T01:24:25;16.33;;;14.82;;
18228;SDS011;9239;50.932;3.142;2022-09-03T01:27:14;17.13;;;15.55;;
18228;SDS011;9239;50.932;3.142;2022-09-03T01:29:52;16.88;;;15.45;;
18228;SDS011;9239;50.932;3.142;2022-09-03T01:32:30;15.55;;;14.15;;
18228;SDS011;9239;50.932;3.142;2022-09-03T01:35:08;17.80;;;16.35;;
18228;SDS011;9239;50.932;3.142;2022-09-03T01:37:42;17.13;;;15.68;;
18228;SDS011;9239;50.932;3.142;2022-09-03T01:40:20;17.35;;;15.93;;
18228;SDS011;9239;50.932;3.142;2022-09-03T01:42:59;17.83;;;16.33;;
18228;SDS011;9239;50.932;3.142;2022-09-03T01:45:42;18.30;;;16.70;;
18228;SDS011;9239;50.932;3.142;2022-09-03T01:48:22;17.27;;;15.77;;
18228;SDS011;9239;50.932;3.142;2022-09-03T01:51:20;18.35;;;16.77;;
18228;SDS011;9239;50.932;3.142;2022-09-03T01:59:50;18.10;;;16.52;;
18228;SDS011;9239;50.932;3.142;2022-09-03T02:02:25;18.15;;;16.65;;
18228;SDS011;9239;50.932;3.142;2022-09-03T02:04:54;17.55;;;15.95;;
18228;SDS011;9239;50.932;3.142;2022-09-03T02:07:25;18.27;;;16.67;;
18228;SDS011;9239;50.932;3.142;2022-09-03T02:09:57;18.65;;;17.05;;
18228;SDS011;9239;50.932;3.142;2022-09-03T02:12:25;17.67;;;16.08;;
18228;SDS011;9239;50.932;3.142;2022-09-03T02:14:57;16.88;;;15.48;;
18228;SDS011;9239;50.932;3.142;2022-09-03T02:17:26;17.65;;;16.15;;
18228;SDS011;9239;50.932;3.142;2022-09-03T02:19:53;19.10;;;17.50;;
18228;SDS011;9239;50.932;3.142;2022-09-03T02:22:20;18.17;;;16.67;;
18228;SDS011;9239;50.932;3.142;2022-09-03T02:24:47;18.67;;;17.17;;
18228;SDS011;9239;50.932;3.142;2022-09-03T02:27:14;18.77;;;17.13;;
18228;SDS011;9239;50.932;3.142;2022-09-03T02:29:41;18.95;;;17.33;;
18228;SDS011;9239;50.932;3.142;2022-09-03T02:32:09;20.25;;;18.15;;
18228;SDS011;9239;50.932;3.142;2022-09-03T02:34:40;19.77;;;17.95;;
18228;SDS011;9239;50.932;3.142;2022-09-03T02:37:11;19.13;;;17.42;;
18228;SDS011;9239;50.932;3.142;2022-09-03T02:39:39;20.73;;;18.92;;
18228;SDS011;9239;50.932;3.142;2022-09-03T02:42:06;19.70;;;17.90;;
18228;SDS011;9239;50.932;3.142;2022-09-03T02:44:37;18.73;;;17.02;;
18228;SDS011;9239;50.932;3.142;2022-09-03T02:47:09;20.40;;;18.65;;
18228;SDS011;9239;50.932;3.142;2022-09-03T02:49:36;19.33;;;17.60;;
18228;SDS011;9239;50.932;3.142;2022-09-03T02:52:05;18.23;;;16.73;;
18228;SDS011;9239;50.932;3.142;2022-09-03T02:54:34;18.50;;;16.80;;
18228;SDS011;9239;50.932;3.142;2022-09-03T02:57:04;18.85;;;17.33;;
18228;SDS011;9239;50.932;3.142;2022-09-03T02:59:32;19.58;;;17.73;;
18228;SDS011;9239;50.932;3.142;2022-09-03T03:01:59;18.75;;;17.15;;
18228;SDS011;9239;50.932;3.142;2022-09-03T03:04:26;19.45;;;17.67;;
18228;SDS011;9239;50.932;3.142;2022-09-03T03:06:53;19.45;;;17.73;;
18228;SDS011;9239;50.932;3.142;2022-09-03T03:09:22;20.73;;;18.85;;
18228;SDS011;9239;50.932;3.142;2022-09-03T03:11:48;20.02;;;18.23;;
18228;SDS011;9239;50.932;3.142;2022-09-03T03:14:15;21.38;;;19.48;;
18228;SDS011;9239;50.932;3.142;2022-09-03T03:16:43;21.25;;;19.30;;
18228;SDS011;9239;50.932;3.142;2022-09-03T03:19:10;20.73;;;18.88;;
18228;SDS011;9239;50.932;3.142;2022-09-03T03:21:37;18.90;;;17.15;;
18228;SDS011;9239;50.932;3.142;2022-09-03T03:24:04;20.90;;;19.00;;
18228;SDS011;9239;50.932;3.142;2022-09-03T03:26:32;20.92;;;19.10;;
18228;SDS011;9239;50.932;3.142;2022-09-03T03:29:00;21.33;;;19.38;;
18228;SDS011;9239;50.932;3.142;2022-09-03T03:31:29;19.65;;;18.00;;
18228;SDS011;9239;50.932;3.142;2022-09-03T03:33:58;20.25;;;18.33;;
18228;SDS011;9239;50.932;3.142;2022-09-03T03:36:26;20.23;;;18.42;;
18228;SDS011;9239;50.932;3.142;2022-09-03T03:38:54;22.27;;;20.17;;
18228;SDS011;9239;50.932;3.142;2022-09-03T03:41:23;19.58;;;17.88;;
18228;SDS011;9239;50.932;3.142;2022-09-03T03:43:53;20.20;;;18.30;;
18228;SDS011;9239;50.932;3.142;2022-09-03T03:46:21;20.15;;;18.33;;
18228;SDS011;9239;50.932;3.142;2022-09-03T03:48:48;20.60;;;18.80;;
18228;SDS011;9239;50.932;3.142;2022-09-03T03:51:15;19.23;;;17.52;;
18228;SDS011;9239;50.932;3.142;2022-09-03T03:53:43;21.13;;;19.10;;
18228;SDS011;9239;50.932;3.142;2022-09-03T03:56:12;20.50;;;18.52;;
18228;SDS011;9239;50.932;3.142;2022-09-03T03:58:41;21.35;;;19.35;;
18228;SDS011;9239;50.932;3.142;2022-09-03T04:01:10;20.08;;;18.33;;
18228;SDS011;9239;50.932;3.142;2022-09-03T04:03:39;20.23;;;18.23;;
18228;SDS011;9239;50.932;3.142;2022-09-03T04:06:07;20.35;;;18.38;;
18228;SDS011;9239;50.932;3.142;2022-09-03T04:08:35;19.15;;;17.55;;
18228;SDS011;9239;50.932;3.142;2022-09-03T04:11:04;20.75;;;18.75;;
18228;SDS011;9239;50.932;3.142;2022-09-03T04:13:34;20.85;;;18.65;;
18228;SDS011;9239;50.932;3.142;2022-09-03T04:16:02;20.25;;;18.45;;
18228;SDS011;9239;50.932;3.142;2022-09-03T04:18:32;19.88;;;18.10;;
18228;SDS011;9239;50.932;3.142;2022-09-03T04:20:59;21.42;;;19.40;;
18228;SDS011;9239;50.932;3.142;2022-09-03T04:23:29;20.40;;;18.60;;
18228;SDS011;9239;50.932;3.142;2022-09-03T04:25:56;20.45;;;18.52;;
18228;SDS011;9239;50.932;3.142;2022-09-03T04:28:23;21.77;;;19.80;;
18228;SDS011;9239;50.932;3.142;2022-09-03T04:30:50;21.13;;;19.13;;
18228;SDS011;9239;50.932;3.142;2022-09-03T04:33:18;20.10;;;18.30;;
18228;SDS011;9239;50.932;3.142;2022-09-03T04:35:46;20.38;;;18.65;;
18228;SDS011;9239;50.932;3.142;2022-09-03T04:38:13;20.77;;;18.80;;
18228;SDS011;9239;50.932;3.142;2022-09-03T04:40:41;19.75;;;18.00;;
18228;SDS011;9239;50.932;3.142;2022-09-03T04:43:08;21.25;;;19.35;;
18228;SDS011;9239;50.932;3.142;2022-09-03T04:45:34;20.73;;;18.75;;
18228;SDS011;9239;50.932;3.142;2022-09-03T04:48:02;20.95;;;19.05;;
18228;SDS011;9239;50.932;3.142;2022-09-03T04:50:30;21.13;;;19.33;;
18228;SDS011;9239;50.932;3.142;2022-09-03T04:53:01;20.83;;;18.98;;
18228;SDS011;9239;50.932;3.142;2022-09-03T04:55:31;21.70;;;19.70;;
18228;SDS011;9239;50.932;3.142;2022-09-03T04:57:59;21.17;;;18.95;;
18228;SDS011;9239;50.932;3.142;2022-09-03T05:00:26;20.45;;;18.42;;
18228;SDS011;9239;50.932;3.142;2022-09-03T05:02:53;20.50;;;18.70;;
18228;SDS011;9239;50.932;3.142;2022-09-03T05:05:19;22.25;;;20.27;;
18228;SDS011;9239;50.932;3.142;2022-09-03T05:07:46;21.13;;;19.13;;
18228;SDS011;9239;50.932;3.142;2022-09-03T05:10:15;20.52;;;18.73;;
18228;SDS011;9239;50.932;3.142;2022-09-03T05:12:44;20.38;;;18.40;;
18228;SDS011;9239;50.932;3.142;2022-09-03T05:15:11;20.50;;;18.65;;
18228;SDS011;9239;50.932;3.142;2022-09-03T05:17:39;22.40;;;20.30;;
18228;SDS011;9239;50.932;3.142;2022-09-03T05:20:06;22.20;;;20.05;;
18228;SDS011;9239;50.932;3.142;2022-09-03T05:22:34;22.08;;;20.00;;
18228;SDS011;9239;50.932;3.142;2022-09-03T05:25:01;22.58;;;20.50;;
18228;SDS011;9239;50.932;3.142;2022-09-03T05:27:30;21.73;;;19.73;;
18228;SDS011;9239;50.932;3.142;2022-09-03T05:29:57;20.58;;;18.55;;
18228;SDS011;9239;50.932;3.142;2022-09-03T05:32:24;23.00;;;20.73;;
18228;SDS011;9239;50.932;3.142;2022-09-03T05:34:52;22.83;;;20.35;;
18228;SDS011;9239;50.932;3.142;2022-09-03T05:37:20;21.70;;;19.70;;
18228;SDS011;9239;50.932;3.142;2022-09-03T05:39:48;21.92;;;19.70;;
18228;SDS011;9239;50.932;3.142;2022-09-03T05:42:15;23.13;;;21.10;;
18228;SDS011;9239;50.932;3.142;2022-09-03T05:44:43;23.35;;;21.15;;
18228;SDS011;9239;50.932;3.142;2022-09-03T05:47:10;22.80;;;20.42;;
18228;SDS011;9239;50.932;3.142;2022-09-03T05:49:37;21.95;;;19.75;;
18228;SDS011;9239;50.932;3.142;2022-09-03T05:52:03;23.33;;;20.90;;
18228;SDS011;9239;50.932;3.142;2022-09-03T05:54:30;22.45;;;20.35;;
18228;SDS011;9239;50.932;3.142;2022-09-03T05:56:57;20.83;;;18.95;;
18228;SDS011;9239;50.932;3.142;2022-09-03T05:59:25;23.73;;;21.40;;
18228;SDS011;9239;50.932;3.142;2022-09-03T06:01:53;21.15;;;18.98;;
18228;SDS011;9239;50.932;3.142;2022-09-03T06:04:20;20.42;;;18.45;;
18228;SDS011;9239;50.932;3.142;2022-09-03T06:06:47;19.88;;;18.17;;
18228;SDS011;9239;50.932;3.142;2022-09-03T06:09:14;21.67;;;19.73;;
18228;SDS011;9239;50.932;3.142;2022-09-03T06:11:43;23.25;;;21.15;;
18228;SDS011;9239;50.932;3.142;2022-09-03T06:14:11;21.45;;;19.35;;
18228;SDS011;9239;50.932;3.142;2022-09-03T06:16:40;20.30;;;18.50;;
18228;SDS011;9239;50.932;3.142;2022-09-03T06:19:10;20.95;;;19.05;;
18228;SDS011;9239;50.932;3.142;2022-09-03T06:21:38;21.80;;;19.67;;
18228;SDS011;9239;50.932;3.142;2022-09-03T06:24:07;21.33;;;19.15;;
18228;SDS011;9239;50.932;3.142;2022-09-03T06:26:34;20.67;;;18.88;;
18228;SDS011;9239;50.932;3.142;2022-09-03T06:29:01;22.10;;;19.98;;
18228;SDS011;9239;50.932;3.142;2022-09-03T06:31:28;19.85;;;18.05;;
18228;SDS011;9239;50.932;3.142;2022-09-03T06:33:55;21.50;;;19.50;;
18228;SDS011;9239;50.932;3.142;2022-09-03T06:36:24;21.15;;;19.27;;
18228;SDS011;9239;50.932;3.142;2022-09-03T06:38:52;20.67;;;18.58;;
18228;SDS011;9239;50.932;3.142;2022-09-03T06:41:20;20.80;;;18.98;;
18228;SDS011;9239;50.932;3.142;2022-09-03T06:43:49;20.85;;;18.85;;
18228;SDS011;9239;50.932;3.142;2022-09-03T06:46:17;19.20;;;17.42;;
18228;SDS011;9239;50.932;3.142;2022-09-03T06:48:45;21.70;;;19.52;;
18228;SDS011;9239;50.932;3.142;2022-09-03T06:51:13;20.42;;;18.42;;
18228;SDS011;9239;50.932;3.142;2022-09-03T06:53:43;20.13;;;18.33;;
18228;SDS011;9239;50.932;3.142;2022-09-03T06:56:11;20.15;;;18.38;;
18228;SDS011;9239;50.932;3.142;2022-09-03T06:58:40;19.70;;;17.90;;
18228;SDS011;9239;50.932;3.142;2022-09-03T07:01:09;18.95;;;17.20;;
18228;SDS011;9239;50.932;3.142;2022-09-03T07:03:37;19.45;;;17.55;;
18228;SDS011;9239;50.932;3.142;2022-09-03T07:06:06;20.10;;;18.35;;
18228;SDS011;9239;50.932;3.142;2022-09-03T07:08:34;18.55;;;16.65;;
18228;SDS011;9239;50.932;3.142;2022-09-03T07:11:03;20.73;;;18.70;;
18228;SDS011;9239;50.932;3.142;2022-09-03T07:13:33;17.73;;;16.15;;
18228;SDS011;9239;50.932;3.142;2022-09-03T07:16:00;17.65;;;15.95;;
18228;SDS011;9239;50.932;3.142;2022-09-03T07:18:28;16.83;;;15.23;;
18228;SDS011;9239;50.932;3.142;2022-09-03T07:20:58;16.50;;;15.05;;
18228;SDS011;9239;50.932;3.142;2022-09-03T07:23:27;18.52;;;16.60;;
18228;SDS011;9239;50.932;3.142;2022-09-03T07:25:55;17.00;;;15.30;;
18228;SDS011;9239;50.932;3.142;2022-09-03T07:28:24;16.08;;;14.60;;
18228;SDS011;9239;50.932;3.142;2022-09-03T07:30:51;16.02;;;14.52;;
18228;SDS011;9239;50.932;3.142;2022-09-03T07:33:19;16.00;;;14.48;;
18228;SDS011;9239;50.932;3.142;2022-09-03T07:35:46;16.50;;;15.13;;
18228;SDS011;9239;50.932;3.142;2022-09-03T07:38:16;14.98;;;13.55;;
18228;SDS011;9239;50.932;3.142;2022-09-03T07:40:43;15.25;;;13.85;;
18228;SDS011;9239;50.932;3.142;2022-09-03T07:43:11;14.85;;;13.45;;
18228;SDS011;9239;50.932;3.142;2022-09-03T07:45:39;14.98;;;13.57;;
18228;SDS011;9239;50.932;3.142;2022-09-03T07:48:10;14.80;;;13.40;;
18228;SDS011;9239;50.932;3.142;2022-09-03T07:50:37;15.10;;;13.60;;
18228;SDS011;9239;50.932;3.142;2022-09-03T07:53:04;15.20;;;13.77;;
18228;SDS011;9239;50.932;3.142;2022-09-03T07:55:32;15.18;;;13.73;;
18228;SDS011;9239;50.932;3.142;2022-09-03T07:57:59;14.30;;;13.10;;
18228;SDS011;9239;50.932;3.142;2022-09-03T08:00:26;15.07;;;13.82;;
18228;SDS011;9239;50.932;3.142;2022-09-03T08:02:54;14.80;;;13.30;;
18228;SDS011;9239;50.932;3.142;2022-09-03T08:05:23;14.77;;;13.48;;
18228;SDS011;9239;50.932;3.142;2022-09-03T08:07:50;15.88;;;14.38;;
18228;SDS011;9239;50.932;3.142;2022-09-03T08:10:17;15.63;;;14.23;;
18228;SDS011;9239;50.932;3.142;2022-09-03T08:12:44;15.98;;;14.63;;
18228;SDS011;9239;50.932;3.142;2022-09-03T08:15:11;17.40;;;15.75;;
18228;SDS011;9239;50.932;3.142;2022-09-03T08:17:37;15.93;;;14.63;;
18228;SDS011;9239;50.932;3.142;2022-09-03T08:20:10;16.10;;;14.63;;
18228;SDS011;9239;50.932;3.142;2022-09-03T08:22:38;16.70;;;15.15;;
18228;SDS011;9239;50.932;3.142;2022-09-03T08:25:06;15.13;;;13.80;;
18228;SDS011;9239;50.932;3.142;2022-09-03T08:27:33;15.70;;;14.40;;
18228;SDS011;9239;50.932;3.142;2022-09-03T08:30:00;17.83;;;14.93;;
18228;SDS011;9239;50.932;3.142;2022-09-03T08:32:28;14.65;;;13.40;;
18228;SDS011;9239;50.932;3.142;2022-09-03T08:34:55;15.77;;;14.48;;
18228;SDS011;9239;50.932;3.142;2022-09-03T08:37:23;14.45;;;13.07;;
18228;SDS011;9239;50.932;3.142;2022-09-03T08:39:53;14.48;;;12.88;;
18228;SDS011;9239;50.932;3.142;2022-09-03T08:42:23;14.32;;;13.02;;
18228;SDS011;9239;50.932;3.142;2022-09-03T08:44:57;14.32;;;12.82;;
18228;SDS011;9239;50.932;3.142;2022-09-03T08:47:27;14.70;;;13.48;;
18228;SDS011;9239;50.932;3.142;2022-09-03T08:49:59;13.63;;;12.00;;
18228;SDS011;9239;50.932;3.142;2022-09-03T08:52:32;14.85;;;13.63;;
18228;SDS011;9239;50.932;3.142;2022-09-03T08:57:54;13.40;;;12.20;;
18228;SDS011;9239;50.932;3.142;2022-09-03T09:00:28;13.68;;;12.50;;
18228;SDS011;9239;50.932;3.142;2022-09-03T09:03:06;13.43;;;12.18;;
18228;SDS011;9239;50.932;3.142;2022-09-03T09:05:58;13.80;;;12.70;;
18228;SDS011;9239;50.932;3.142;2022-09-03T09:08:34;14.00;;;11.80;;
18228;SDS011;9239;50.932;3.142;2022-09-03T09:11:12;12.75;;;11.65;;
18228;SDS011;9239;50.932;3.142;2022-09-03T09:13:48;21.80;;;19.60;;
18228;SDS011;9239;50.932;3.142;2022-09-03T09:16:21;15.73;;;14.52;;
18228;SDS011;9239;50.932;3.142;2022-09-03T09:18:55;11.70;;;10.80;;
18228;SDS011;9239;50.932;3.142;2022-09-03T09:21:33;12.38;;;11.32;;
18228;SDS011;9239;50.932;3.142;2022-09-03T09:24:09;13.80;;;12.35;;
18228;SDS011;9239;50.932;3.142;2022-09-03T09:26:47;13.13;;;11.85;;
18228;SDS011;9239;50.932;3.142;2022-09-03T09:29:14;14.27;;;12.85;;
18228;SDS011;9239;50.932;3.142;2022-09-03T09:31:42;14.05;;;12.68;;
18228;SDS011;9239;50.932;3.142;2022-09-03T09:34:09;13.30;;;12.07;;
18228;SDS011;9239;50.932;3.142;2022-09-03T09:36:40;13.98;;;12.65;;
18228;SDS011;9239;50.932;3.142;2022-09-03T09:39:12;12.88;;;11.77;;
18228;SDS011;9239;50.932;3.142;2022-09-03T09:41:40;14.60;;;13.27;;
18228;SDS011;9239;50.932;3.142;2022-09-03T09:44:16;12.15;;;11.00;;
18228;SDS011;9239;50.932;3.142;2022-09-03T09:46:46;12.88;;;11.88;;
18228;SDS011;9239;50.932;3.142;2022-09-03T09:49:21;14.30;;;13.02;;
18228;SDS011;9239;50.932;3.142;2022-09-03T09:52:03;14.05;;;12.77;;
18228;SDS011;9239;50.932;3.142;2022-09-03T09:54:34;14.40;;;13.15;;
18228;SDS011;9239;50.932;3.142;2022-09-03T09:57:02;13.35;;;12.15;;
18228;SDS011;9239;50.932;3.142;2022-09-03T09:59:30;13.57;;;12.55;;
18228;SDS011;9239;50.932;3.142;2022-09-03T10:02:03;13.90;;;12.63;;
18228;SDS011;9239;50.932;3.142;2022-09-03T10:04:35;15.15;;;13.73;;
18228;SDS011;9239;50.932;3.142;2022-09-03T10:07:04;14.50;;;13.30;;
18228;SDS011;9239;50.932;3.142;2022-09-03T10:09:45;14.85;;;13.55;;
18228;SDS011;9239;50.932;3.142;2022-09-03T10:12:23;13.32;;;12.02;;
18228;SDS011;9239;50.932;3.142;2022-09-03T10:14:54;14.18;;;13.02;;
18228;SDS011;9239;50.932;3.142;2022-09-03T10:17:28;13.48;;;12.27;;
18228;SDS011;9239;50.932;3.142;2022-09-03T10:20:03;10.98;;;10.07;;
18228;SDS011;9239;50.932;3.142;2022-09-03T10:22:55;9.95;;;9.05;;
18228;SDS011;9239;50.932;3.142;2022-09-03T10:25:26;9.82;;;8.98;;
18228;SDS011;9239;50.932;3.142;2022-09-03T10:27:59;10.13;;;9.32;;
18228;SDS011;9239;50.932;3.142;2022-09-03T10:30:27;12.10;;;11.10;;
18228;SDS011;9239;50.932;3.142;2022-09-03T10:33:13;12.43;;;11.43;;
18228;SDS011;9239;50.932;3.142;2022-09-03T10:35:45;11.18;;;10.23;;
18228;SDS011;9239;50.932;3.142;2022-09-03T10:38:19;10.70;;;9.82;;
18228;SDS011;9239;50.932;3.142;2022-09-03T10:40:58;11.50;;;10.50;;
18228;SDS011;9239;50.932;3.142;2022-09-03T10:43:40;10.82;;;9.93;;
18228;SDS011;9239;50.932;3.142;2022-09-03T10:46:25;10.00;;;9.13;;
18228;SDS011;9239;50.932;3.142;2022-09-03T10:51:49;11.52;;;10.43;;
18228;SDS011;9239;50.932;3.142;2022-09-03T10:54:29;10.77;;;9.88;;
18228;SDS011;9239;50.932;3.142;2022-09-03T10:57:10;13.25;;;12.05;;
18228;SDS011;9239;50.932;3.142;2022-09-03T10:59:47;12.82;;;11.73;;
18228;SDS011;9239;50.932;3.142;2022-09-03T11:02:29;13.43;;;12.25;;
18228;SDS011;9239;50.932;3.142;2022-09-03T11:05:08;12.07;;;11.07;;
18228;SDS011;9239;50.932;3.142;2022-09-03T11:07:40;12.57;;;11.57;;
18228;SDS011;9239;50.932;3.142;2022-09-03T11:10:12;12.27;;;11.20;;
18228;SDS011;9239;50.932;3.142;2022-09-03T11:12:45;11.93;;;10.93;;
18228;SDS011;9239;50.932;3.142;2022-09-03T11:15:18;13.35;;;12.05;;
18228;SDS011;9239;50.932;3.142;2022-09-03T11:17:52;11.85;;;10.85;;
18228;SDS011;9239;50.932;3.142;2022-09-03T11:20:24;12.57;;;11.50;;
18228;SDS011;9239;50.932;3.142;2022-09-03T11:22:52;13.77;;;12.70;;
18228;SDS011;9239;50.932;3.142;2022-09-03T11:25:24;11.82;;;10.77;;
18228;SDS011;9239;50.932;3.142;2022-09-03T11:27:59;11.07;;;10.10;;
18228;SDS011;9239;50.932;3.142;2022-09-03T11:30:38;12.07;;;11.05;;
18228;SDS011;9239;50.932;3.142;2022-09-03T11:33:18;11.70;;;10.60;;
18228;SDS011;9239;50.932;3.142;2022-09-03T11:35:53;11.82;;;10.73;;
18228;SDS011;9239;50.932;3.142;2022-09-03T11:38:25;11.02;;;9.93;;
18228;SDS011;9239;50.932;3.142;2022-09-03T11:40:57;13.48;;;12.27;;
18228;SDS011;9239;50.932;3.142;2022-09-03T11:43:31;12.77;;;11.75;;
18228;SDS011;9239;50.932;3.142;2022-09-03T11:46:00;10.73;;;9.93;;
18228;SDS011;9239;50.932;3.142;2022-09-03T11:48:33;10.68;;;9.85;;
18228;SDS011;9239;50.932;3.142;2022-09-03T11:51:02;11.45;;;10.55;;
18228;SDS011;9239;50.932;3.142;2022-09-03T11:53:33;12.02;;;10.95;;
18228;SDS011;9239;50.932;3.142;2022-09-03T11:56:11;10.35;;;9.45;;
18228;SDS011;9239;50.932;3.142;2022-09-03T11:58:44;12.35;;;11.20;;
18228;SDS011;9239;50.932;3.142;2022-09-03T12:01:12;12.77;;;11.68;;
18228;SDS011;9239;50.932;3.142;2022-09-03T12:03:42;13.57;;;12.50;;
18228;SDS011;9239;50.932;3.142;2022-09-03T12:06:20;11.35;;;10.45;;
18228;SDS011;9239;50.932;3.142;2022-09-03T12:09:01;11.50;;;10.65;;
18228;SDS011;9239;50.932;3.142;2022-09-03T12:11:42;8.65;;;7.85;;
18228;SDS011;9239;50.932;3.142;2022-09-03T12:14:18;11.40;;;10.50;;
18228;SDS011;9239;50.932;3.142;2022-09-03T12:16:51;9.85;;;9.02;;
18228;SDS011;9239;50.932;3.142;2022-09-03T12:19:31;8.52;;;7.38;;
18228;SDS011;9239;50.932;3.142;2022-09-03T12:22:06;8.73;;;8.02;;
18228;SDS011;9239;50.932;3.142;2022-09-03T12:24:39;9.40;;;8.55;;
18228;SDS011;9239;50.932;3.142;2022-09-03T12:27:08;10.38;;;9.48;;
18228;SDS011;9239;50.932;3.142;2022-09-03T12:29:48;9.15;;;8.45;;
18228;SDS011;9239;50.932;3.142;2022-09-03T12:32:22;7.53;;;6.85;;
18228;SDS011;9239;50.932;3.142;2022-09-03T12:34:50;8.02;;;7.20;;
18228;SDS011;9239;50.932;3.142;2022-09-03T12:37:18;7.30;;;6.70;;
18228;SDS011;9239;50.932;3.142;2022-09-03T12:39:51;8.30;;;7.70;;
18228;SDS011;9239;50.932;3.142;2022-09-03T12:42:22;8.95;;;8.27;;
18228;SDS011;9239;50.932;3.142;2022-09-03T12:44:52;8.93;;;8.23;;
18228;SDS011;9239;50.932;3.142;2022-09-03T12:47:19;4.65;;;4.22;;
18228;SDS011;9239;50.932;3.142;2022-09-03T12:49:48;5.03;;;4.63;;
18228;SDS011;9239;50.932;3.142;2022-09-03T12:52:17;4.88;;;4.47;;
18228;SDS011;9239;50.932;3.142;2022-09-03T12:54:47;5.30;;;4.85;;
18228;SDS011;9239;50.932;3.142;2022-09-03T12:57:19;5.03;;;4.72;;
18228;SDS011;9239;50.932;3.142;2022-09-03T12:59:48;5.00;;;4.55;;
18228;SDS011;9239;50.932;3.142;2022-09-03T13:02:19;4.70;;;4.30;;
18228;SDS011;9239;50.932;3.142;2022-09-03T13:04:50;5.97;;;5.47;;
18228;SDS011;9239;50.932;3.142;2022-09-03T13:07:22;6.30;;;5.88;;
18228;SDS011;9239;50.932;3.142;2022-09-03T13:09:54;7.10;;;6.53;;
18228;SDS011;9239;50.932;3.142;2022-09-03T13:12:29;5.93;;;5.53;;
18228;SDS011;9239;50.932;3.142;2022-09-03T13:15:03;7.10;;;6.50;;
18228;SDS011;9239;50.932;3.142;2022-09-03T13:17:41;6.65;;;6.05;;
18228;SDS011;9239;50.932;3.142;2022-09-03T13:20:32;6.47;;;5.97;;
18228;SDS011;9239;50.932;3.142;2022-09-03T13:23:08;5.68;;;5.25;;
18228;SDS011;9239;50.932;3.142;2022-09-03T13:25:45;6.13;;;5.53;;
18228;SDS011;9239;50.932;3.142;2022-09-03T13:28:20;5.43;;;4.93;;
18228;SDS011;9239;50.932;3.142;2022-09-03T13:31:05;6.18;;;5.47;;
18228;SDS011;9239;50.932;3.142;2022-09-03T13:33:39;5.47;;;4.97;;
18228;SDS011;9239;50.932;3.142;2022-09-03T13:36:09;5.93;;;5.18;;
18228;SDS011;9239;50.932;3.142;2022-09-03T13:38:42;5.85;;;4.78;;
18228;SDS011;9239;50.932;3.142;2022-09-03T13:41:15;5.90;;;5.50;;
18228;SDS011;9239;50.932;3.142;2022-09-03T13:43:56;5.50;;;5.07;;
18228;SDS011;9239;50.932;3.142;2022-09-03T13:46:30;5.00;;;4.60;;
18228;SDS011;9239;50.932;3.142;2022-09-03T13:49:09;5.25;;;4.85;;
18228;SDS011;9239;50.932;3.142;2022-09-03T13:52:00;4.80;;;4.40;;
18228;SDS011;9239;50.932;3.142;2022-09-03T13:54:34;5.68;;;4.68;;
18228;SDS011;9239;50.932;3.142;2022-09-03T13:57:08;5.63;;;5.13;;
18228;SDS011;9239;50.932;3.142;2022-09-03T13:59:50;4.90;;;4.50;;
18228;SDS011;9239;50.932;3.142;2022-09-03T14:02:22;5.15;;;4.32;;
18228;SDS011;9239;50.932;3.142;2022-09-03T14:05:05;5.38;;;4.95;;
18228;SDS011;9239;50.932;3.142;2022-09-03T14:07:47;4.93;;;4.53;;
18228;SDS011;9239;50.932;3.142;2022-09-03T14:10:26;5.93;;;5.30;;
18228;SDS011;9239;50.932;3.142;2022-09-03T14:13:13;4.68;;;4.28;;
18228;SDS011;9239;50.932;3.142;2022-09-03T14:15:46;5.13;;;4.63;;
18228;SDS011;9239;50.932;3.142;2022-09-03T14:18:22;3.50;;;3.30;;
18228;SDS011;9239;50.932;3.142;2022-09-03T14:21:04;4.18;;;3.30;;
18228;SDS011;9239;50.932;3.142;2022-09-03T14:23:39;3.72;;;3.40;;
18228;SDS011;9239;50.932;3.142;2022-09-03T14:26:14;4.22;;;3.92;;
18228;SDS011;9239;50.932;3.142;2022-09-03T14:28:44;4.47;;;3.63;;
18228;SDS011;9239;50.932;3.142;2022-09-03T14:31:15;4.38;;;3.97;;
18228;SDS011;9239;50.932;3.142;2022-09-03T14:33:52;4.82;;;4.03;;
18228;SDS011;9239;50.932;3.142;2022-09-03T14:36:28;4.65;;;4.13;;
18228;SDS011;9239;50.932;3.142;2022-09-03T14:39:11;5.32;;;4.53;;
18228;SDS011;9239;50.932;3.142;2022-09-03T14:42:01;5.30;;;4.85;;
18228;SDS011;9239;50.932;3.142;2022-09-03T14:47:38;5.82;;;5.32;;
18228;SDS011;9239;50.932;3.142;2022-09-03T14:50:20;6.35;;;5.75;;
18228;SDS011;9239;50.932;3.142;2022-09-03T14:56:21;5.82;;;5.43;;
18228;SDS011;9239;50.932;3.142;2022-09-03T14:59:11;7.00;;;6.40;;
18228;SDS011;9239;50.932;3.142;2022-09-03T15:01:51;7.43;;;6.72;;
18228;SDS011;9239;50.932;3.142;2022-09-03T15:04:48;9.15;;;6.55;;
18228;SDS011;9239;50.932;3.142;2022-09-03T15:07:23;6.68;;;6.18;;
18228;SDS011;9239;50.932;3.142;2022-09-03T15:10:00;6.40;;;5.45;;
18228;SDS011;9239;50.932;3.142;2022-09-03T15:12:36;6.90;;;4.53;;
18228;SDS011;9239;50.932;3.142;2022-09-03T15:15:07;5.53;;;5.03;;
18228;SDS011;9239;50.932;3.142;2022-09-03T15:17:44;5.82;;;5.28;;
18228;SDS011;9239;50.932;3.142;2022-09-03T15:20:21;4.55;;;3.83;;
18228;SDS011;9239;50.932;3.142;2022-09-03T15:23:06;4.78;;;4.38;;
18228;SDS011;9239;50.932;3.142;2022-09-03T15:28:41;3.88;;;3.58;;
18228;SDS011;9239;50.932;3.142;2022-09-03T15:31:18;3.70;;;3.50;;
18228;SDS011;9239;50.932;3.142;2022-09-03T15:33:50;3.83;;;3.53;;